createdAt,value
2019-04-27T02:07:50.195Z,20.43
2019-04-27T02:10:19.646Z,21.40
2019-04-27T02:12:48.818Z,21.70
2019-04-27T02:15:19.143Z,26.45
2019-04-27T02:17:51.011Z,25.85
2019-04-27T02:20:20.341Z,25.10
2019-04-27T02:22:50.764Z,24.23
2019-04-27T02:25:21.094Z,24.30
2019-04-27T02:27:53.954Z,23.52
2019-04-27T02:30:49.807Z,24.23
2019-04-27T02:33:30.257Z,23.25
2019-04-27T02:36:00.394Z,23.45
2019-04-27T02:38:30.510Z,21.70
2019-04-27T02:41:02.306Z,22.00
2019-04-27T02:43:54.312Z,21.68
2019-04-27T02:46:23.481Z,21.85
2019-04-27T02:48:59.642Z,22.58
2019-04-27T02:51:33.037Z,22.45
2019-04-27T02:54:03.274Z,23.20
2019-04-27T02:56:32.785Z,21.48
2019-04-27T02:59:01.981Z,22.58
2019-04-27T03:01:33.694Z,23.02
2019-04-27T03:04:02.920Z,24.00
2019-04-27T03:06:32.105Z,23.47
2019-04-27T03:09:01.310Z,23.80
2019-04-27T03:11:31.845Z,24.40
2019-04-27T03:14:36.212Z,23.85
2019-04-27T03:17:10.071Z,22.95
2019-04-27T03:19:45.672Z,22.77
2019-04-27T03:22:32.136Z,21.30
2019-04-27T03:25:30.391Z,20.62
2019-04-27T03:28:14.005Z,19.00
2019-04-27T03:30:43.790Z,19.23
2019-04-27T03:33:13.172Z,18.57
2019-04-27T03:35:43.884Z,18.07
2019-04-27T03:38:13.527Z,17.57
2019-04-27T03:40:42.697Z,16.20
2019-04-27T03:43:16.926Z,16.95
2019-04-27T03:45:46.164Z,15.23
2019-04-27T03:48:16.863Z,14.65
2019-04-27T03:51:02.810Z,13.72
2019-04-27T03:53:49.883Z,14.43
2019-04-27T03:56:24.528Z,13.53
2019-04-27T03:59:06.089Z,12.73
2019-04-27T04:01:35.407Z,12.82
2019-04-27T04:04:06.434Z,12.28
2019-04-27T04:06:35.650Z,12.15
2019-04-27T04:09:06.824Z,11.43
2019-04-27T04:11:55.155Z,10.95
2019-04-27T04:14:24.700Z,10.15
2019-04-27T04:17:02.714Z,9.80
2019-04-27T04:19:47.469Z,9.35
2019-04-27T04:22:01.310Z,10.20
2019-04-27T04:24:31.805Z,9.33
2019-04-27T04:27:01.147Z,9.03
2019-04-27T04:29:30.775Z,8.90
2019-04-27T04:32:00.539Z,7.97
2019-04-27T04:34:30.046Z,8.20
2019-04-27T04:37:00.406Z,8.30
2019-04-27T04:39:29.884Z,8.15
2019-04-27T04:42:14.467Z,7.97
2019-04-27T04:45:10.643Z,7.70
2019-04-27T04:47:55.645Z,7.35
2019-04-27T04:50:24.818Z,6.87
2019-04-27T04:52:53.983Z,7.20
2019-04-27T04:55:23.306Z,7.15
2019-04-27T04:57:52.490Z,7.50
2019-04-27T05:00:21.838Z,7.22
2019-04-27T05:02:51.085Z,7.25
2019-04-27T05:05:20.728Z,7.03
2019-04-27T05:07:49.895Z,6.87
2019-04-27T05:10:19.211Z,6.90
2019-04-27T05:12:50.341Z,6.78
2019-04-27T05:15:20.704Z,6.90
2019-04-27T05:17:51.001Z,6.70
2019-04-27T05:20:26.484Z,6.80
2019-04-27T05:22:55.818Z,7.10
2019-04-27T05:25:25.055Z,7.10
2019-04-27T05:27:54.265Z,7.42
2019-04-27T05:30:23.443Z,6.80
2019-04-27T05:32:52.778Z,6.78
2019-04-27T05:35:21.950Z,6.90
2019-04-27T05:37:51.143Z,6.83
2019-04-27T05:40:20.310Z,7.00
2019-04-27T05:42:55.018Z,7.28
2019-04-27T05:46:35.612Z,6.70
2019-04-27T05:49:06.210Z,7.22
2019-04-27T05:51:37.331Z,6.55
2019-04-27T05:54:06.798Z,6.85
2019-04-27T05:56:36.039Z,7.30
2019-04-27T05:59:05.215Z,7.40
2019-04-27T06:01:34.399Z,7.33
2019-04-27T06:04:03.663Z,6.72
2019-04-27T06:06:32.831Z,7.53
2019-04-27T06:09:02.049Z,7.28
2019-04-27T06:11:31.477Z,7.58
2019-04-27T06:14:00.673Z,6.60
2019-04-27T06:16:30.248Z,7.40
2019-04-27T06:18:59.719Z,7.20
2019-04-27T06:21:29.462Z,7.33
2019-04-27T06:23:58.977Z,7.40
2019-04-27T06:26:30.176Z,7.95
2019-04-27T06:28:59.673Z,7.35
2019-04-27T06:31:29.698Z,7.33
2019-04-27T06:33:59.687Z,7.53
2019-04-27T06:36:29.167Z,7.47
2019-04-27T06:38:58.914Z,7.45
2019-04-27T06:41:29.489Z,7.75
2019-04-27T06:43:59.351Z,8.15
2019-04-27T06:46:28.910Z,7.80
2019-04-27T06:48:59.325Z,7.62
2019-04-27T06:51:28.877Z,8.00
2019-04-27T06:53:59.494Z,7.77
2019-04-27T06:56:28.939Z,8.10
2019-04-27T06:58:59.688Z,7.40
2019-04-27T07:01:29.956Z,7.40
2019-04-27T07:03:59.773Z,8.13
2019-04-27T07:06:29.205Z,7.55
2019-04-27T07:08:59.740Z,7.95
2019-04-27T07:11:29.582Z,7.70
2019-04-27T07:13:59.457Z,8.17
2019-04-27T07:16:29.374Z,7.80
2019-04-27T07:18:59.346Z,8.00
2019-04-27T07:21:28.715Z,8.20
2019-04-27T07:23:59.350Z,7.47
2019-04-27T07:26:30.349Z,7.53
2019-04-27T07:28:59.947Z,7.70
2019-04-27T07:31:31.605Z,7.17
2019-04-27T07:34:00.058Z,8.23
2019-04-27T07:36:29.201Z,8.10
2019-04-27T07:38:59.891Z,8.58
2019-04-27T07:41:29.637Z,7.30
2019-04-27T07:44:10.258Z,8.18
2019-04-27T07:46:39.451Z,7.55
2019-04-27T07:49:09.321Z,7.03
2019-04-27T07:51:39.324Z,7.10
2019-04-27T07:54:10.639Z,7.05
2019-04-27T07:56:39.844Z,6.17
2019-04-27T07:59:09.245Z,6.85
2019-04-27T08:01:39.796Z,9.08
2019-04-27T08:04:09.282Z,6.42
2019-04-27T08:06:38.838Z,6.60
2019-04-27T08:09:09.507Z,6.70
2019-04-27T08:11:39.694Z,6.17
2019-04-27T08:14:08.923Z,6.90
2019-04-27T08:16:38.781Z,5.80
2019-04-27T08:19:09.938Z,6.70
2019-04-27T08:21:44.574Z,6.83
2019-04-27T08:24:11.143Z,7.30
2019-04-27T08:26:47.143Z,7.00
2019-04-27T08:29:27.248Z,6.90
2019-04-27T08:31:59.879Z,6.53
2019-04-27T08:34:36.223Z,6.83
2019-04-27T08:37:06.462Z,6.85
2019-04-27T08:39:35.606Z,7.17
2019-04-27T08:42:05.517Z,7.20
2019-04-27T08:44:34.711Z,7.37
2019-04-27T08:47:03.916Z,8.20
2019-04-27T08:49:33.060Z,7.90
2019-04-27T08:52:02.746Z,8.30
2019-04-27T08:54:32.152Z,9.27
2019-04-27T08:57:01.738Z,9.10
2019-04-27T08:59:29.858Z,9.08
2019-04-27T09:01:58.749Z,9.85
2019-04-27T09:04:28.809Z,10.40
2019-04-27T09:07:03.683Z,10.08
2019-04-27T09:09:39.736Z,10.00
2019-04-27T09:12:25.780Z,10.20
2019-04-27T09:15:02.463Z,10.18
2019-04-27T09:17:34.519Z,10.48
2019-04-27T09:20:28.693Z,11.85
2019-04-27T09:22:56.904Z,12.60
2019-04-27T09:25:25.092Z,12.63
2019-04-27T09:27:55.166Z,12.88
2019-04-27T09:30:23.285Z,12.20
2019-04-27T09:32:51.487Z,12.28
2019-04-27T09:35:19.576Z,12.43
2019-04-27T09:37:47.972Z,11.30
2019-04-27T09:40:17.164Z,12.63
2019-04-27T09:42:46.357Z,12.63
2019-04-27T09:45:15.935Z,13.20
2019-04-27T09:47:44.268Z,12.58
2019-04-27T09:50:13.560Z,13.35
2019-04-27T09:52:41.862Z,12.93
2019-04-27T09:55:09.996Z,12.78
2019-04-27T09:57:38.119Z,12.58
2019-04-27T10:00:07.132Z,11.53
2019-04-27T10:02:36.648Z,11.63
2019-04-27T10:05:05.998Z,12.60
2019-04-27T10:07:35.830Z,12.05
2019-04-27T10:10:06.343Z,12.30
2019-04-27T10:12:36.676Z,12.05
2019-04-27T10:15:06.132Z,11.15
2019-04-27T10:17:34.334Z,12.43
2019-04-27T10:20:02.438Z,11.63
2019-04-27T10:22:40.563Z,12.13
2019-04-27T10:25:00.388Z,11.30
2019-04-27T10:27:28.512Z,10.30
2019-04-27T10:29:58.358Z,10.70
2019-04-27T10:32:26.400Z,10.43
2019-04-27T10:34:54.502Z,6.87
2019-04-27T10:37:22.570Z,6.10
2019-04-27T10:39:50.687Z,4.58
2019-04-27T10:42:18.813Z,5.03
2019-04-27T10:44:46.880Z,4.00
2019-04-27T10:47:15.859Z,4.00
2019-04-27T10:49:44.042Z,4.42
2019-04-27T10:52:12.137Z,3.27
2019-04-27T10:54:40.614Z,2.37
2019-04-27T10:57:08.671Z,2.27
2019-04-27T10:59:36.751Z,2.37
2019-04-27T11:02:05.037Z,2.55
2019-04-27T11:04:57.556Z,2.52
2019-04-27T11:07:31.419Z,2.67
2019-04-27T11:09:59.624Z,2.77
2019-04-27T11:12:27.760Z,2.52
2019-04-27T11:14:55.865Z,2.58
2019-04-27T11:17:23.973Z,2.85
2019-04-27T11:19:52.090Z,3.02
2019-04-27T11:22:20.248Z,3.07
2019-04-27T11:24:48.369Z,2.98
2019-04-27T11:27:16.548Z,3.37
2019-04-27T11:29:46.228Z,2.92
2019-04-27T11:32:15.888Z,2.83
2019-04-27T11:35:05.751Z,2.77
2019-04-27T11:37:37.090Z,3.33
2019-04-27T11:40:05.174Z,3.30
2019-04-27T11:42:33.287Z,3.42
2019-04-27T11:45:02.531Z,3.80
2019-04-27T11:47:30.727Z,3.62
2019-04-27T11:49:58.881Z,3.73
2019-04-27T11:52:26.951Z,3.67
2019-04-27T11:54:55.726Z,3.90
2019-04-27T11:57:24.565Z,4.28
2019-04-27T11:59:52.655Z,3.12
2019-04-27T12:02:20.761Z,3.90
2019-04-27T12:04:48.856Z,3.30
2019-04-27T12:07:16.912Z,3.17
2019-04-27T12:09:46.235Z,3.40
2019-04-27T12:12:19.429Z,3.30
2019-04-27T12:14:45.409Z,3.50
2019-04-27T12:17:14.219Z,3.35
2019-04-27T12:19:42.305Z,3.20
2019-04-27T12:22:10.411Z,4.35
2019-04-27T12:24:38.538Z,4.22
2019-04-27T12:27:19.154Z,3.90
2019-04-27T12:30:06.257Z,3.60
2019-04-27T12:32:35.971Z,3.75
2019-04-27T12:35:04.262Z,4.08
2019-04-27T12:37:32.346Z,3.98
2019-04-27T12:40:00.448Z,4.00
2019-04-27T12:42:28.539Z,4.30
2019-04-27T12:44:56.649Z,3.50
2019-04-27T12:47:26.258Z,3.30
2019-04-27T12:49:57.552Z,3.80
2019-04-27T12:52:25.919Z,3.92
2019-04-27T12:55:12.393Z,4.00
2019-04-27T12:57:55.752Z,4.22
2019-04-27T13:00:26.702Z,4.57
2019-04-27T13:02:55.559Z,4.50
2019-04-27T13:05:25.835Z,5.10
2019-04-27T13:07:54.221Z,4.60
2019-04-27T13:10:22.280Z,4.40
2019-04-27T13:12:50.367Z,5.10
2019-04-27T13:15:18.596Z,4.65
2019-04-27T13:17:46.660Z,4.40
2019-04-27T13:20:16.515Z,4.83
2019-04-27T13:22:45.905Z,4.90
2019-04-27T13:25:14.283Z,5.28
2019-04-27T13:27:42.365Z,5.12
2019-04-27T13:30:10.752Z,5.05
2019-04-27T13:32:38.945Z,5.78
2019-04-27T13:35:07.329Z,5.65
2019-04-27T13:37:38.283Z,5.47
2019-04-27T13:40:09.382Z,5.75
2019-04-27T13:42:40.545Z,5.40
2019-04-27T13:45:13.684Z,5.80
2019-04-27T13:47:51.423Z,5.10
2019-04-27T13:50:26.783Z,5.63
2019-04-27T13:52:57.001Z,5.67
2019-04-27T13:55:25.192Z,5.67
2019-04-27T13:57:53.363Z,5.72
2019-04-27T14:00:21.555Z,5.90
2019-04-27T14:02:49.682Z,5.90
2019-04-27T14:05:17.818Z,6.12
2019-04-27T14:07:46.981Z,5.60
2019-04-27T14:10:15.364Z,6.15
2019-04-27T14:12:43.618Z,6.10
2019-04-27T14:15:12.152Z,6.00
2019-04-27T14:17:40.290Z,6.00
2019-04-27T14:20:09.694Z,5.70
2019-04-27T14:22:38.871Z,6.20
2019-04-27T14:25:08.609Z,6.35
2019-04-27T14:27:40.795Z,6.80
2019-04-27T14:30:09.464Z,6.97
2019-04-27T14:32:38.774Z,7.10
2019-04-27T14:35:08.424Z,6.50
2019-04-27T14:37:38.619Z,7.10
2019-04-27T14:40:08.448Z,7.15
2019-04-27T14:42:36.606Z,7.00
2019-04-27T14:45:06.016Z,6.40
2019-04-27T14:47:34.103Z,6.55
2019-04-27T14:50:02.204Z,7.25
2019-04-27T14:52:30.558Z,7.25
2019-04-27T14:54:58.635Z,8.20
2019-04-27T14:57:26.813Z,8.58
2019-04-27T14:59:55.041Z,8.65
2019-04-27T15:02:23.234Z,8.80
2019-04-27T15:04:51.335Z,8.85
2019-04-27T15:07:20.788Z,8.00
2019-04-27T15:09:49.645Z,8.68
2019-04-27T15:12:18.799Z,7.50
2019-04-27T15:14:47.130Z,6.05
2019-04-27T15:17:20.950Z,6.62
2019-04-27T15:19:52.685Z,6.08
2019-04-27T15:22:25.329Z,4.65
2019-04-27T15:25:07.802Z,5.00
2019-04-27T15:27:30.812Z,5.10
2019-04-27T15:30:03.040Z,5.10
2019-04-27T15:32:41.046Z,5.80
2019-04-27T15:35:21.613Z,5.78
2019-04-27T15:37:53.843Z,6.17
2019-04-27T15:40:44.008Z,6.22
2019-04-27T15:43:27.412Z,7.37
2019-04-27T15:45:57.284Z,7.12
2019-04-27T15:48:25.021Z,7.62
2019-04-27T15:50:52.995Z,6.97
2019-04-27T15:53:21.074Z,7.80
2019-04-27T15:55:49.735Z,7.40
2019-04-27T15:58:24.825Z,5.33
2019-04-27T16:00:49.632Z,4.30
2019-04-27T16:03:22.726Z,3.60
2019-04-27T16:05:48.353Z,3.80
2019-04-27T16:08:18.653Z,3.40
2019-04-27T16:10:46.313Z,3.75
2019-04-27T16:13:15.295Z,3.35
2019-04-27T16:15:43.518Z,2.02
2019-04-27T16:18:13.233Z,2.27
2019-04-27T16:20:41.446Z,2.55
2019-04-27T16:23:09.606Z,2.52
2019-04-27T16:25:47.412Z,2.37
2019-04-27T16:28:09.708Z,2.30
2019-04-27T16:30:39.098Z,2.27
2019-04-27T16:33:08.713Z,2.60
2019-04-27T16:35:38.642Z,2.70
2019-04-27T16:38:21.589Z,2.87
2019-04-27T16:40:49.709Z,2.80
2019-04-27T16:43:19.260Z,2.83
2019-04-27T16:45:48.550Z,2.90
2019-04-27T16:48:18.448Z,3.00
2019-04-27T16:50:46.437Z,2.90
2019-04-27T16:53:14.657Z,2.90
2019-04-27T16:55:42.759Z,3.00
2019-04-27T16:58:15.834Z,3.35
2019-04-27T17:00:40.857Z,3.22
2019-04-27T17:03:09.377Z,3.10
2019-04-27T17:05:38.109Z,2.80
2019-04-27T17:08:06.474Z,3.50
2019-04-27T17:10:34.733Z,3.47
2019-04-27T17:13:06.298Z,3.50
2019-04-27T17:15:53.728Z,3.30
2019-04-27T17:18:32.405Z,3.17
2019-04-27T17:21:05.590Z,3.52
2019-04-27T17:23:31.642Z,3.55
2019-04-27T17:26:04.477Z,3.75
2019-04-27T17:28:37.639Z,3.40
2019-04-27T17:31:06.411Z,3.90
2019-04-27T17:33:39.761Z,4.15
2019-04-27T17:36:12.025Z,3.42
2019-04-27T17:38:38.475Z,3.62
2019-04-27T17:41:11.145Z,3.52
2019-04-27T17:43:37.398Z,3.70
2019-04-27T17:46:07.462Z,3.67
2019-04-27T17:48:37.667Z,4.15
2019-04-27T17:51:05.951Z,3.90
2019-04-27T17:53:34.039Z,5.20
2019-04-27T17:56:05.618Z,4.42
2019-04-27T17:58:35.401Z,3.50
2019-04-27T18:01:02.199Z,3.47
2019-04-27T18:03:30.346Z,3.33
2019-04-27T18:05:58.438Z,2.87
2019-04-27T18:08:26.542Z,2.83
2019-04-27T18:11:00.648Z,3.15
2019-04-27T18:13:25.682Z,2.90
2019-04-27T18:15:54.388Z,3.00
2019-04-27T18:18:41.504Z,3.12
2019-04-27T18:21:09.956Z,3.20
2019-04-27T18:23:39.877Z,3.10
2019-04-27T18:26:29.519Z,3.47
2019-04-27T18:29:00.045Z,3.30
2019-04-27T18:31:28.949Z,3.50
2019-04-27T18:33:58.880Z,3.83
2019-04-27T18:36:26.898Z,3.87
2019-04-27T18:38:56.340Z,3.30
2019-04-27T18:41:24.421Z,3.37
2019-04-27T18:43:55.206Z,3.60
2019-04-27T18:46:24.840Z,4.12
2019-04-27T18:49:11.523Z,4.00
2019-04-27T18:51:48.425Z,4.42
2019-04-27T18:54:18.293Z,4.08
2019-04-27T18:56:49.045Z,4.10
2019-04-27T18:59:16.225Z,5.33
2019-04-27T19:01:44.388Z,4.60
2019-04-27T19:04:12.517Z,4.50
2019-04-27T19:06:40.679Z,4.90
2019-04-27T19:09:09.146Z,5.20
2019-04-27T19:11:38.244Z,5.40
2019-04-27T19:14:08.235Z,4.47
2019-04-27T19:16:38.406Z,4.70
2019-04-27T19:19:08.499Z,4.80
2019-04-27T19:21:36.501Z,4.87
2019-04-27T19:24:04.744Z,4.70
2019-04-27T19:26:44.261Z,5.00
2019-04-27T19:29:22.284Z,5.30
2019-04-27T19:31:54.289Z,5.10
2019-04-27T19:34:22.416Z,5.28
2019-04-27T19:36:51.702Z,5.37
2019-04-27T19:39:20.001Z,5.40
2019-04-27T19:42:00.003Z,5.05
2019-04-27T19:44:18.823Z,5.72
2019-04-27T19:46:49.041Z,5.30
2019-04-27T19:49:19.066Z,5.47
2019-04-27T19:51:46.719Z,5.80
2019-04-27T19:54:14.867Z,5.67
2019-04-27T19:56:43.024Z,5.57
2019-04-27T19:59:21.850Z,5.80
2019-04-27T20:01:50.967Z,5.85
2019-04-27T20:04:24.051Z,5.40
2019-04-27T20:06:52.243Z,5.97
2019-04-27T20:09:28.658Z,5.58
2019-04-27T20:11:56.929Z,5.17
2019-04-27T20:14:26.278Z,6.20
2019-04-27T20:16:54.461Z,5.83
2019-04-27T20:19:22.550Z,7.08
2019-04-27T20:21:50.957Z,5.92
2019-04-27T20:24:19.056Z,5.90
2019-04-27T20:26:47.238Z,4.85
2019-04-27T20:29:15.325Z,5.58
2019-04-27T20:31:44.507Z,5.55
2019-04-27T20:34:12.809Z,5.40
2019-04-27T20:36:41.483Z,5.40
2019-04-27T20:39:12.735Z,5.40
2019-04-27T20:41:41.145Z,5.55
2019-04-27T20:44:11.007Z,5.62
2019-04-27T20:46:41.213Z,5.70
2019-04-27T20:49:19.473Z,6.40
2019-04-27T20:51:56.403Z,6.58
2019-04-27T20:55:01.266Z,6.00
2019-04-27T20:57:31.740Z,5.75
2019-04-27T21:00:02.287Z,5.40
2019-04-27T21:02:53.303Z,5.37
2019-04-27T21:05:31.940Z,5.40
2019-04-27T21:08:03.266Z,6.12
2019-04-27T21:10:32.647Z,6.55
2019-04-27T21:13:01.844Z,6.50
2019-04-27T21:15:31.559Z,6.30
2019-04-27T21:18:01.294Z,6.97
2019-04-27T21:20:31.049Z,6.28
2019-04-27T21:23:01.892Z,5.70
2019-04-27T21:25:31.582Z,5.70
2019-04-27T21:28:15.004Z,5.45
2019-04-27T21:30:33.023Z,5.12
2019-04-27T21:33:03.190Z,5.47
2019-04-27T21:35:32.412Z,4.83
2019-04-27T21:38:04.692Z,5.55
2019-04-27T21:40:33.786Z,6.20
2019-04-27T21:43:02.066Z,4.97
2019-04-27T21:45:31.763Z,5.72
2019-04-27T21:48:00.806Z,5.65
2019-04-27T21:50:31.248Z,6.00
2019-04-27T21:53:07.013Z,5.60
2019-04-27T21:55:35.507Z,5.28
2019-04-27T21:58:03.824Z,4.97
2019-04-27T22:00:51.350Z,4.87
2019-04-27T22:03:21.811Z,4.93
2019-04-27T22:05:51.475Z,5.62
2019-04-27T22:08:21.439Z,5.33
2019-04-27T22:10:49.608Z,5.47
2019-04-27T22:13:17.669Z,5.90
2019-04-27T22:15:45.785Z,5.40
2019-04-27T22:18:13.870Z,5.10
2019-04-27T22:20:42.716Z,5.03
2019-04-27T22:23:22.908Z,5.22
2019-04-27T22:25:54.296Z,4.93
2019-04-27T22:28:21.616Z,4.60
2019-04-27T22:30:49.728Z,4.80
2019-04-27T22:33:17.875Z,4.47
2019-04-27T22:35:45.964Z,4.60
2019-04-27T22:38:14.178Z,5.03
2019-04-27T22:41:08.533Z,4.87
2019-04-27T22:44:02.051Z,4.80
2019-04-27T22:46:30.836Z,4.90
2019-04-27T22:48:58.939Z,3.57
2019-04-27T22:51:27.057Z,4.17
2019-04-27T22:53:55.121Z,3.67
2019-04-27T22:56:23.211Z,4.73
2019-04-27T22:59:00.664Z,5.20
2019-04-27T23:01:53.766Z,5.80
2019-04-27T23:04:27.623Z,5.70
2019-04-27T23:06:55.723Z,5.87
2019-04-27T23:09:23.920Z,6.07
2019-04-27T23:11:52.188Z,5.62
2019-04-27T23:14:21.161Z,5.85
2019-04-27T23:16:51.259Z,6.45
2019-04-27T23:19:20.973Z,6.20
2019-04-27T23:21:49.159Z,6.47
2019-04-27T23:24:17.274Z,5.53
2019-04-27T23:26:45.347Z,5.83
2019-04-27T23:29:15.857Z,6.10
2019-04-27T23:31:50.064Z,6.03
2019-04-27T23:34:18.153Z,5.92
2019-04-27T23:36:46.477Z,6.12
2019-04-27T23:39:14.755Z,6.17
2019-04-27T23:41:43.005Z,6.30
2019-04-27T23:44:11.124Z,5.45
2019-04-27T23:46:39.396Z,5.28
2019-04-27T23:49:07.486Z,5.62
2019-04-27T23:51:57.612Z,5.22
2019-04-27T23:54:25.728Z,5.70
2019-04-27T23:56:53.833Z,5.83
2019-04-27T23:59:25.082Z,5.60
